createdAt,value
2023-01-26T00:00:43.685Z,54.23
2023-01-26T00:03:13.237Z,58.52
2023-01-26T00:05:43.801Z,56.92
2023-01-26T00:08:14.272Z,53.20
2023-01-26T00:10:49.207Z,61.57
2023-01-26T00:13:23.305Z,60.08
2023-01-26T00:15:52.932Z,50.67
2023-01-26T00:18:22.425Z,63.25
2023-01-26T00:21:01.311Z,55.92
2023-01-26T00:23:33.086Z,59.30
2023-01-26T00:26:03.648Z,63.23
2023-01-26T00:28:33.341Z,60.50
2023-01-26T00:31:07.752Z,54.00
2023-01-26T00:33:39.081Z,52.23
2023-01-26T00:36:09.539Z,53.10
2023-01-26T00:38:39.718Z,52.23
2023-01-26T00:41:13.537Z,63.77
2023-01-26T00:43:44.004Z,55.13
2023-01-26T00:46:15.157Z,55.15
2023-01-26T00:48:45.204Z,56.42
2023-01-26T00:51:15.242Z,57.25
2023-01-26T00:53:44.735Z,54.60
2023-01-26T00:56:15.077Z,57.27
2023-01-26T00:58:45.769Z,53.13
2023-01-26T01:01:15.302Z,53.45
2023-01-26T01:03:45.059Z,54.03
2023-01-26T01:06:14.487Z,49.33
2023-01-26T01:08:43.913Z,52.35
2023-01-26T01:11:13.569Z,52.35
2023-01-26T01:13:43.131Z,52.97
2023-01-26T01:16:16.765Z,53.42
2023-01-26T01:18:47.585Z,51.48
2023-01-26T01:21:18.637Z,54.10
2023-01-26T01:23:49.067Z,45.52
2023-01-26T01:26:20.424Z,49.20
2023-01-26T01:28:51.265Z,52.07
2023-01-26T01:31:20.819Z,44.83
2023-01-26T01:33:52.803Z,50.23
2023-01-26T01:36:22.861Z,49.45
2023-01-26T01:38:54.121Z,51.08
2023-01-26T01:41:24.204Z,49.03
2023-01-26T01:44:00.311Z,50.00
2023-01-26T01:46:35.731Z,44.03
2023-01-26T01:49:08.495Z,46.35
2023-01-26T01:51:53.172Z,47.40
2023-01-26T01:54:30.335Z,49.27
2023-01-26T01:57:03.701Z,44.45
2023-01-26T01:59:35.375Z,46.18
2023-01-26T02:02:04.895Z,38.47
2023-01-26T02:04:35.446Z,47.45
2023-01-26T02:07:06.283Z,42.15
2023-01-26T02:09:57.217Z,39.38
2023-01-26T02:12:29.714Z,44.85
2023-01-26T02:15:01.170Z,38.38
2023-01-26T02:17:30.810Z,46.00
2023-01-26T02:20:24.441Z,43.48
2023-01-26T02:23:06.513Z,37.78
2023-01-26T02:25:42.958Z,43.05
2023-01-26T02:28:12.687Z,42.50
2023-01-26T02:30:42.401Z,44.40
2023-01-26T02:33:28.060Z,41.60
2023-01-26T02:35:59.532Z,38.55
2023-01-26T02:38:32.234Z,38.25
2023-01-26T02:41:07.285Z,39.83
2023-01-26T02:43:37.901Z,38.55
2023-01-26T02:46:07.392Z,40.00
2023-01-26T02:48:56.536Z,37.55
2023-01-26T02:51:26.113Z,45.03
2023-01-26T02:53:55.849Z,42.65
2023-01-26T02:56:25.577Z,40.23
2023-01-26T02:58:56.486Z,40.95
2023-01-26T03:01:26.065Z,40.83
2023-01-26T03:03:55.553Z,42.03
2023-01-26T03:06:25.435Z,41.73
2023-01-26T03:08:55.481Z,42.38
2023-01-26T03:11:26.621Z,42.33
2023-01-26T03:13:56.188Z,44.30
2023-01-26T03:16:25.615Z,38.40
2023-01-26T03:19:06.049Z,40.78
2023-01-26T03:21:53.671Z,37.90
2023-01-26T03:25:58.360Z,39.58
2023-01-26T03:28:29.261Z,40.63
2023-01-26T03:30:59.706Z,38.65
2023-01-26T03:33:30.581Z,42.50
2023-01-26T03:36:00.330Z,35.08
2023-01-26T03:38:29.844Z,36.20
2023-01-26T03:41:18.844Z,40.23
2023-01-26T03:44:05.870Z,40.30
2023-01-26T03:46:53.704Z,40.05
2023-01-26T03:49:41.339Z,38.88
2023-01-26T03:52:29.348Z,37.58
2023-01-26T03:55:16.885Z,36.15
2023-01-26T03:57:46.509Z,36.75
2023-01-26T04:00:16.355Z,38.65
2023-01-26T04:03:05.260Z,35.55
2023-01-26T04:05:52.845Z,36.25
2023-01-26T04:08:27.617Z,34.20
2023-01-26T04:11:01.792Z,36.73
2023-01-26T04:13:50.587Z,31.93
2023-01-26T04:16:42.605Z,34.85
2023-01-26T04:19:30.856Z,38.88
2023-01-26T04:22:03.585Z,42.58
2023-01-26T04:24:34.960Z,35.63
2023-01-26T04:27:04.464Z,35.95
2023-01-26T04:29:35.680Z,37.60
2023-01-26T04:32:05.694Z,37.53
2023-01-26T04:34:36.355Z,37.55
2023-01-26T04:37:07.559Z,36.42
2023-01-26T04:39:38.959Z,36.88
2023-01-26T04:42:09.334Z,37.00
2023-01-26T04:44:38.750Z,36.90
2023-01-26T04:47:09.043Z,36.30
2023-01-26T04:49:39.607Z,36.63
2023-01-26T04:52:09.489Z,36.80
2023-01-26T04:54:39.971Z,35.55
2023-01-26T04:57:09.682Z,35.98
2023-01-26T04:59:40.175Z,32.63
2023-01-26T05:02:11.279Z,33.00
2023-01-26T05:04:41.339Z,38.90
2023-01-26T05:07:11.015Z,39.48
2023-01-26T05:09:40.818Z,36.58
2023-01-26T05:12:33.383Z,35.05
2023-01-26T05:15:16.420Z,36.75
2023-01-26T05:17:48.152Z,34.63
2023-01-26T05:20:19.418Z,37.90
2023-01-26T05:25:33.947Z,32.13
2023-01-26T05:28:05.656Z,37.93
2023-01-26T05:30:35.746Z,29.05
2023-01-26T05:33:07.742Z,34.03
2023-01-26T05:35:37.785Z,30.60
2023-01-26T05:38:10.198Z,36.40
2023-01-26T05:40:40.255Z,32.83
2023-01-26T05:43:13.036Z,31.15
2023-01-26T05:45:44.865Z,31.62
2023-01-26T05:48:15.685Z,31.68
2023-01-26T05:50:46.391Z,29.77
2023-01-26T05:53:18.092Z,31.30
2023-01-26T05:55:48.760Z,38.40
2023-01-26T05:58:20.467Z,32.80
2023-01-26T06:00:50.458Z,27.48
2023-01-26T06:03:22.455Z,37.37
2023-01-26T06:05:56.840Z,31.68
2023-01-26T06:08:28.396Z,28.65
2023-01-26T06:11:02.347Z,34.33
2023-01-26T06:13:42.463Z,33.30
2023-01-26T06:16:16.758Z,32.67
2023-01-26T06:18:50.182Z,33.98
2023-01-26T06:21:20.240Z,31.82
2023-01-26T06:23:49.729Z,33.40
2023-01-26T06:26:19.883Z,38.25
2023-01-26T06:28:49.992Z,38.13
2023-01-26T06:31:23.971Z,35.15
2023-01-26T06:33:55.307Z,36.60
2023-01-26T06:36:24.954Z,39.75
2023-01-26T06:38:56.687Z,30.88
2023-01-26T06:41:26.799Z,33.28
2023-01-26T06:43:56.370Z,30.92
2023-01-26T06:46:25.966Z,32.23
2023-01-26T06:48:56.800Z,35.20
2023-01-26T06:51:50.002Z,40.45
2023-01-26T06:54:19.749Z,33.13
2023-01-26T06:56:56.434Z,31.75
2023-01-26T06:59:35.307Z,40.52
2023-01-26T07:02:23.318Z,33.35
2023-01-26T07:04:54.649Z,33.23
2023-01-26T07:07:24.157Z,35.05
2023-01-26T07:09:53.581Z,34.75
2023-01-26T07:12:23.527Z,33.65
2023-01-26T07:14:52.976Z,38.70
2023-01-26T07:17:22.405Z,37.42
2023-01-26T07:19:52.045Z,35.60
2023-01-26T07:22:21.536Z,35.63
2023-01-26T07:24:51.016Z,38.55
2023-01-26T07:27:20.703Z,38.67
2023-01-26T07:29:51.611Z,37.95
2023-01-26T07:32:21.617Z,40.23
2023-01-26T07:34:51.113Z,44.88
2023-01-26T07:37:20.724Z,40.65
2023-01-26T07:39:50.202Z,41.23
2023-01-26T07:42:19.622Z,35.48
2023-01-26T07:44:50.837Z,31.12
2023-01-26T07:47:20.273Z,26.23
2023-01-26T07:49:50.472Z,26.25
2023-01-26T07:52:19.992Z,30.10
2023-01-26T07:54:49.555Z,27.93
2023-01-26T07:57:19.232Z,28.80
2023-01-26T07:59:48.688Z,26.48
2023-01-26T08:02:18.098Z,24.18
2023-01-26T08:04:47.698Z,29.85
2023-01-26T08:07:17.133Z,28.85
2023-01-26T08:09:47.958Z,26.07
2023-01-26T08:12:17.517Z,31.70
2023-01-26T08:14:47.445Z,26.57
2023-01-26T08:17:18.030Z,29.77
2023-01-26T08:19:47.930Z,30.62
2023-01-26T08:22:17.420Z,34.67
2023-01-26T08:24:46.916Z,34.60
2023-01-26T08:27:17.657Z,33.58
2023-01-26T08:29:47.084Z,35.92
2023-01-26T08:32:16.598Z,32.25
2023-01-26T08:34:46.591Z,34.98
2023-01-26T08:37:16.110Z,35.73
2023-01-26T08:39:45.548Z,36.10
2023-01-26T08:42:15.728Z,34.10
2023-01-26T08:44:45.428Z,39.08
2023-01-26T08:47:14.911Z,36.58
2023-01-26T08:49:44.460Z,43.30
2023-01-26T08:52:14.697Z,39.53
2023-01-26T08:54:44.675Z,37.20
2023-01-26T08:57:14.132Z,38.67
2023-01-26T08:59:43.631Z,37.17
2023-01-26T09:02:13.653Z,39.27
2023-01-26T09:04:43.393Z,34.35
2023-01-26T09:07:13.598Z,38.65
2023-01-26T09:09:43.504Z,37.93
2023-01-26T09:12:13.016Z,36.08
2023-01-26T09:14:42.553Z,37.63
2023-01-26T09:17:12.001Z,36.65
2023-01-26T09:19:43.041Z,35.75
2023-01-26T09:22:12.577Z,39.15
2023-01-26T09:24:42.073Z,42.38
2023-01-26T09:27:11.546Z,37.67
2023-01-26T09:29:41.121Z,34.70
2023-01-26T09:32:10.610Z,35.75
2023-01-26T09:34:40.038Z,39.15
2023-01-26T09:37:10.198Z,35.45
2023-01-26T09:39:39.733Z,38.02
2023-01-26T09:42:47.226Z,37.40
2023-01-26T09:45:19.800Z,41.70
2023-01-26T09:47:58.276Z,34.92
2023-01-26T09:50:30.785Z,32.88
2023-01-26T09:53:09.476Z,33.13
2023-01-26T09:55:41.164Z,33.45
2023-01-26T09:58:23.197Z,31.60
2023-01-26T10:00:55.540Z,34.93
2023-01-26T10:03:28.557Z,28.52
2023-01-26T10:08:33.728Z,33.42
2023-01-26T10:11:09.802Z,32.13
2023-01-26T10:13:39.697Z,37.15
2023-01-26T10:16:12.503Z,34.35
2023-01-26T10:18:51.473Z,32.90
2023-01-26T10:21:24.119Z,32.90
2023-01-26T10:23:54.368Z,35.70
2023-01-26T10:26:24.774Z,32.08
2023-01-26T10:28:54.883Z,35.13
2023-01-26T10:31:27.485Z,32.25
2023-01-26T10:34:00.176Z,34.40
2023-01-26T10:36:33.592Z,36.00
2023-01-26T10:39:13.577Z,28.50
2023-01-26T10:41:51.480Z,29.45
2023-01-26T10:44:24.050Z,31.77
2023-01-26T10:47:05.857Z,30.05
2023-01-26T10:49:35.865Z,34.85
2023-01-26T10:52:24.939Z,25.45
2023-01-26T10:54:57.736Z,29.65
2023-01-26T10:57:29.775Z,27.75
2023-01-26T11:00:09.729Z,26.27
2023-01-26T11:02:40.847Z,24.67
2023-01-26T11:05:13.817Z,20.43
2023-01-26T11:07:49.620Z,22.70
2023-01-26T11:10:37.612Z,28.87
2023-01-26T11:13:20.885Z,24.63
2023-01-26T11:15:53.458Z,25.43
2023-01-26T11:18:35.103Z,20.05
2023-01-26T11:21:41.564Z,18.85
2023-01-26T11:24:18.267Z,22.58
2023-01-26T11:27:15.094Z,19.77
2023-01-26T11:30:20.697Z,21.02
2023-01-26T11:33:02.250Z,18.98
2023-01-26T11:35:53.715Z,24.82
2023-01-26T11:38:35.461Z,19.70
2023-01-26T11:41:26.113Z,16.53
2023-01-26T11:44:16.736Z,18.10
2023-01-26T11:47:22.849Z,18.25
2023-01-26T11:50:01.550Z,17.95
2023-01-26T11:52:46.535Z,16.12
2023-01-26T11:55:45.693Z,17.50
2023-01-26T11:58:27.427Z,18.67
2023-01-26T12:01:00.001Z,16.73
2023-01-26T12:03:44.364Z,17.32
2023-01-26T12:06:23.344Z,15.18
2023-01-26T12:09:01.067Z,18.50
2023-01-26T12:11:37.258Z,18.12
2023-01-26T12:14:15.657Z,17.67
2023-01-26T12:17:17.736Z,15.43
2023-01-26T12:20:04.671Z,15.78
2023-01-26T12:22:45.263Z,17.92
2023-01-26T12:25:29.908Z,18.90
2023-01-26T12:28:23.931Z,15.63
2023-01-26T12:31:18.128Z,15.98
2023-01-26T12:33:50.640Z,17.20
2023-01-26T12:36:44.006Z,17.45
2023-01-26T12:39:19.536Z,18.48
2023-01-26T12:42:16.060Z,12.88
2023-01-26T12:44:51.683Z,15.10
2023-01-26T12:47:24.183Z,14.95
2023-01-26T12:50:29.915Z,16.02
2023-01-26T12:53:17.582Z,16.02
2023-01-26T12:55:59.611Z,15.10
2023-01-26T12:58:32.113Z,12.85
2023-01-26T13:01:05.411Z,14.83
2023-01-26T13:03:43.630Z,13.43
2023-01-26T13:06:19.647Z,17.45
2023-01-26T13:09:23.952Z,17.02
2023-01-26T13:12:01.564Z,18.95
2023-01-26T13:14:46.301Z,13.90
2023-01-26T13:17:23.349Z,13.65
2023-01-26T13:19:55.126Z,14.63
2023-01-26T13:22:27.604Z,14.45
2023-01-26T13:25:03.495Z,11.38
2023-01-26T13:30:04.031Z,12.07
2023-01-26T13:32:36.681Z,14.55
2023-01-26T13:35:09.147Z,10.63
2023-01-26T13:37:58.200Z,10.58
2023-01-26T13:40:39.576Z,10.95
2023-01-26T13:43:26.328Z,12.18
2023-01-26T13:45:58.543Z,11.15
2023-01-26T13:48:46.559Z,9.88
2023-01-26T13:51:19.128Z,12.15
2023-01-26T13:53:57.965Z,11.55
2023-01-26T13:56:32.467Z,10.50
2023-01-26T13:59:07.793Z,10.10
2023-01-26T14:01:43.174Z,13.13
2023-01-26T14:04:21.935Z,10.35
2023-01-26T14:07:00.340Z,11.38
2023-01-26T14:09:33.700Z,11.38
2023-01-26T14:12:05.923Z,11.18
2023-01-26T14:14:38.363Z,11.33
2023-01-26T14:17:11.180Z,8.10
2023-01-26T14:19:42.973Z,9.73
2023-01-26T14:22:15.213Z,11.60
2023-01-26T14:24:46.170Z,11.78
2023-01-26T14:27:33.641Z,13.13
2023-01-26T14:30:05.736Z,11.12
2023-01-26T14:32:35.377Z,11.43
2023-01-26T14:35:07.214Z,10.73
2023-01-26T14:37:36.778Z,10.60
2023-01-26T14:40:17.992Z,8.85
2023-01-26T14:42:50.424Z,8.03
2023-01-26T14:45:23.564Z,7.33
2023-01-26T14:47:54.737Z,9.00
2023-01-26T14:50:31.769Z,7.15
2023-01-26T14:53:04.823Z,9.20
2023-01-26T14:55:37.055Z,10.32
2023-01-26T14:58:10.852Z,9.65
2023-01-26T15:00:40.469Z,10.05
2023-01-26T15:03:15.704Z,10.53
2023-01-26T15:05:45.583Z,12.13
2023-01-26T15:08:21.096Z,9.68
2023-01-26T15:11:20.970Z,9.85
2023-01-26T15:13:56.253Z,9.38
2023-01-26T15:16:27.458Z,9.18
2023-01-26T15:19:09.276Z,10.10
2023-01-26T15:21:41.027Z,11.00
2023-01-26T15:24:15.953Z,11.63
2023-01-26T15:26:45.637Z,9.80
2023-01-26T15:29:27.540Z,11.53
2023-01-26T15:31:59.241Z,12.43
2023-01-26T15:34:37.892Z,12.30
2023-01-26T15:37:32.567Z,16.95
2023-01-26T15:40:02.751Z,13.32
2023-01-26T15:42:33.609Z,12.78
2023-01-26T15:45:03.741Z,13.88
2023-01-26T15:47:33.158Z,11.03
2023-01-26T15:50:03.848Z,12.73
2023-01-26T15:52:33.648Z,11.33
2023-01-26T15:55:03.193Z,13.83
2023-01-26T15:57:33.577Z,17.75
2023-01-26T16:00:05.206Z,13.62
2023-01-26T16:02:35.718Z,15.23
2023-01-26T16:05:05.502Z,32.67
2023-01-26T16:07:35.141Z,14.98
2023-01-26T16:10:05.812Z,17.45
2023-01-26T16:12:35.238Z,54.88
2023-01-26T16:15:06.880Z,40.33
2023-01-26T16:17:36.380Z,37.07
2023-01-26T16:20:07.173Z,43.07
2023-01-26T16:22:36.723Z,13.62
2023-01-26T16:25:26.199Z,17.07
2023-01-26T16:27:56.740Z,14.85
2023-01-26T16:30:27.898Z,12.37
2023-01-26T16:32:57.676Z,17.55
2023-01-26T16:35:29.689Z,21.27
2023-01-26T16:37:59.350Z,17.27
2023-01-26T16:40:29.560Z,17.25
2023-01-26T16:42:59.058Z,18.62
2023-01-26T16:45:28.578Z,13.50
2023-01-26T16:48:00.268Z,15.60
2023-01-26T16:50:31.525Z,17.47
2023-01-26T16:53:03.042Z,17.45
2023-01-26T16:55:32.447Z,16.57
2023-01-26T16:58:01.945Z,24.55
2023-01-26T17:00:32.630Z,20.52
2023-01-26T17:03:02.191Z,16.48
2023-01-26T17:05:31.673Z,14.83
2023-01-26T17:08:01.216Z,23.62
2023-01-26T17:10:30.785Z,16.25
2023-01-26T17:13:01.358Z,22.25
2023-01-26T17:15:31.566Z,18.85
2023-01-26T17:18:01.658Z,20.20
2023-01-26T17:20:32.495Z,21.77
2023-01-26T17:23:01.925Z,19.62
2023-01-26T17:25:31.573Z,23.90
2023-01-26T17:28:01.264Z,24.32
2023-01-26T17:30:30.811Z,50.65
2023-01-26T17:33:02.498Z,26.93
2023-01-26T17:35:31.925Z,19.85
2023-01-26T17:38:01.369Z,22.30
2023-01-26T17:40:31.497Z,46.02
2023-01-26T17:43:00.938Z,30.62
2023-01-26T17:45:30.533Z,32.80
2023-01-26T17:48:00.629Z,44.70
2023-01-26T17:50:31.027Z,38.13
2023-01-26T17:53:00.493Z,41.85
2023-01-26T17:55:29.930Z,25.37
2023-01-26T17:57:59.361Z,25.12
2023-01-26T18:00:29.576Z,22.55
2023-01-26T18:02:59.549Z,23.92
2023-01-26T18:05:30.059Z,22.17
2023-01-26T18:07:59.864Z,22.80
2023-01-26T18:10:31.151Z,26.20
2023-01-26T18:13:00.632Z,22.70
2023-01-26T18:15:30.059Z,19.52
2023-01-26T18:17:59.550Z,21.35
2023-01-26T18:20:29.200Z,22.58
2023-01-26T18:22:58.633Z,23.50
2023-01-26T18:25:28.919Z,22.60
2023-01-26T18:27:58.650Z,22.98
2023-01-26T18:30:28.379Z,21.95
2023-01-26T18:32:58.474Z,27.80
2023-01-26T18:35:28.117Z,19.67
2023-01-26T18:37:59.431Z,21.35
2023-01-26T18:40:30.988Z,24.40
2023-01-26T18:43:01.420Z,23.57
2023-01-26T18:45:30.847Z,23.73
2023-01-26T18:48:00.392Z,25.57
2023-01-26T18:50:29.923Z,20.92
2023-01-26T18:52:59.350Z,20.97
2023-01-26T18:55:28.878Z,24.05
2023-01-26T18:57:58.698Z,24.67
2023-01-26T19:00:28.201Z,23.10
2023-01-26T19:02:57.730Z,41.05
2023-01-26T19:05:28.323Z,24.52
2023-01-26T19:07:58.489Z,29.82
2023-01-26T19:10:29.542Z,28.93
2023-01-26T19:12:58.963Z,22.93
2023-01-26T19:15:28.416Z,21.45
2023-01-26T19:17:58.595Z,20.50
2023-01-26T19:20:28.866Z,20.40
2023-01-26T19:22:58.340Z,19.70
2023-01-26T19:25:28.332Z,19.82
2023-01-26T19:27:57.998Z,19.85
2023-01-26T19:30:27.932Z,18.57
2023-01-26T19:33:16.039Z,17.53
2023-01-26T19:35:45.790Z,18.50
2023-01-26T19:38:15.283Z,17.77
2023-01-26T19:40:47.510Z,16.43
2023-01-26T19:43:20.401Z,33.33
2023-01-26T19:45:53.089Z,19.03
2023-01-26T19:48:25.401Z,24.17
2023-01-26T19:51:17.704Z,72.37
2023-01-26T19:53:49.195Z,31.43
2023-01-26T19:56:22.198Z,23.35
2023-01-26T19:58:57.288Z,21.45
2023-01-26T20:01:29.846Z,17.07
2023-01-26T20:04:02.383Z,16.55
2023-01-26T20:09:03.958Z,17.90
2023-01-26T20:11:35.989Z,17.98
2023-01-26T20:14:09.812Z,19.32
2023-01-26T20:16:40.716Z,15.20
2023-01-26T20:19:11.853Z,18.85
2023-01-26T20:21:41.446Z,18.30
2023-01-26T20:24:14.104Z,16.75
2023-01-26T20:26:44.976Z,15.93
2023-01-26T20:29:17.010Z,13.83
2023-01-26T20:31:47.296Z,12.77
2023-01-26T20:34:17.763Z,16.32
2023-01-26T20:36:47.849Z,17.17
2023-01-26T20:39:20.890Z,16.48
2023-01-26T20:41:51.418Z,15.80
2023-01-26T20:44:20.989Z,17.50
2023-01-26T20:46:52.060Z,16.17
2023-01-26T20:49:21.635Z,17.67
2023-01-26T20:51:51.130Z,16.32
2023-01-26T20:54:21.261Z,17.70
2023-01-26T20:56:51.757Z,17.40
2023-01-26T21:01:51.446Z,13.72
2023-01-26T21:04:20.958Z,14.80
2023-01-26T21:06:50.994Z,16.80
2023-01-26T21:09:21.555Z,14.78
2023-01-26T21:11:51.959Z,17.55
2023-01-26T21:14:21.369Z,14.40
2023-01-26T21:16:50.867Z,15.28
2023-01-26T21:19:22.557Z,20.02
2023-01-26T21:21:52.054Z,33.53
2023-01-26T21:24:23.784Z,21.82
2023-01-26T21:26:53.406Z,20.75
2023-01-26T21:29:24.028Z,67.17
2023-01-26T21:31:53.501Z,20.12
2023-01-26T21:34:23.654Z,22.02
2023-01-26T21:36:53.087Z,40.65
2023-01-26T21:39:22.519Z,31.40
2023-01-26T21:41:57.823Z,20.50
2023-01-26T21:44:29.669Z,21.40
2023-01-26T21:47:03.758Z,21.00
2023-01-26T21:49:33.251Z,20.30
2023-01-26T21:52:20.655Z,19.23
2023-01-26T21:54:50.092Z,23.10
2023-01-26T21:57:37.559Z,27.30
2023-01-26T22:00:08.404Z,18.90
2023-01-26T22:02:37.853Z,26.73
2023-01-26T22:05:08.847Z,17.73
2023-01-26T22:10:08.452Z,19.92
2023-01-26T22:12:39.381Z,32.23
2023-01-26T22:15:10.992Z,21.02
2023-01-26T22:17:40.415Z,18.17
2023-01-26T22:20:12.541Z,17.45
2023-01-26T22:22:42.711Z,16.37
2023-01-26T22:25:12.199Z,18.42
2023-01-26T22:27:42.577Z,17.55
2023-01-26T22:30:13.063Z,17.77
2023-01-26T22:32:44.230Z,17.48
2023-01-26T22:35:13.869Z,15.55
2023-01-26T22:37:43.304Z,18.85
2023-01-26T22:40:15.509Z,18.80
2023-01-26T22:42:46.977Z,16.17
2023-01-26T22:45:16.538Z,18.05
2023-01-26T22:47:46.404Z,14.80
2023-01-26T22:50:17.396Z,17.65
2023-01-26T22:52:46.802Z,18.60
2023-01-26T22:55:16.378Z,19.50
2023-01-26T22:57:46.050Z,16.52
2023-01-26T23:00:15.725Z,18.57
2023-01-26T23:02:45.170Z,17.45
2023-01-26T23:05:14.692Z,16.57
2023-01-26T23:07:44.421Z,15.88
2023-01-26T23:10:14.287Z,18.60
2023-01-26T23:12:44.420Z,20.83
2023-01-26T23:15:14.594Z,14.40
2023-01-26T23:17:44.214Z,16.55
2023-01-26T23:20:13.991Z,15.95
2023-01-26T23:22:44.137Z,15.00
2023-01-26T23:25:32.452Z,15.85
2023-01-26T23:28:06.037Z,12.95
2023-01-26T23:30:36.114Z,15.60
2023-01-26T23:33:05.495Z,13.10
2023-01-26T23:38:04.630Z,13.85
2023-01-26T23:43:16.106Z,15.98
2023-01-26T23:45:40.725Z,15.88
2023-01-26T23:48:10.369Z,17.15
2023-01-26T23:50:40.686Z,15.75
2023-01-26T23:53:11.656Z,13.40
2023-01-26T23:55:43.035Z,12.53
2023-01-26T23:58:13.306Z,12.58
